createdAt,value
2023-05-19T00:00:47.835Z,57.10
2023-05-19T00:03:34.196Z,55.38
2023-05-19T00:06:21.710Z,58.32
2023-05-19T00:09:08.795Z,58.24
2023-05-19T00:11:53.187Z,57.27
2023-05-19T00:14:37.669Z,56.68
2023-05-19T00:17:22.117Z,57.80
2023-05-19T00:20:09.074Z,57.31
2023-05-19T00:22:54.413Z,57.24
2023-05-19T00:25:38.947Z,56.53
2023-05-19T00:28:23.609Z,59.56
2023-05-19T00:31:08.080Z,58.09
2023-05-19T00:33:52.901Z,56.69
2023-05-19T00:36:40.568Z,57.53
2023-05-19T00:39:25.294Z,57.89
2023-05-19T00:42:10.669Z,57.83
2023-05-19T00:44:55.764Z,56.28
2023-05-19T00:47:40.353Z,56.84
2023-05-19T00:50:28.172Z,60.39
2023-05-19T00:53:15.567Z,58.74
2023-05-19T00:56:05.942Z,58.72
2023-05-19T00:58:58.811Z,58.50
2023-05-19T01:01:47.074Z,59.84
2023-05-19T01:31:13.891Z,59.04
2023-05-19T01:43:33.080Z,59.44
2023-05-19T01:47:31.860Z,58.94
2023-05-19T01:51:48.516Z,59.29
2023-05-19T02:13:21.343Z,58.68
2023-05-19T03:22:30.024Z,61.27
2023-05-19T03:25:13.642Z,63.04
2023-05-19T03:27:57.880Z,61.44
2023-05-19T03:30:41.605Z,60.54
2023-05-19T03:36:40.052Z,60.13
2023-05-19T03:39:28.863Z,62.80
2023-05-19T03:42:12.467Z,62.17
2023-05-19T03:44:56.039Z,61.84
2023-05-19T03:47:39.704Z,60.23
2023-05-19T03:50:46.334Z,61.27
2023-05-19T03:53:38.315Z,61.46
2023-05-19T03:56:25.202Z,61.31
2023-05-19T03:59:10.971Z,61.70
2023-05-19T04:01:54.732Z,62.13
2023-05-19T04:04:38.503Z,65.21
2023-05-19T04:07:22.157Z,62.17
2023-05-19T04:10:06.420Z,61.49
2023-05-19T04:12:50.209Z,64.48
2023-05-19T04:15:34.164Z,63.89
2023-05-19T04:18:17.738Z,65.07
2023-05-19T04:21:01.959Z,64.09
2023-05-19T04:23:45.495Z,61.87
2023-05-19T04:26:31.218Z,61.76
2023-05-19T04:29:18.162Z,63.49
2023-05-19T04:32:02.199Z,63.77
2023-05-19T04:34:46.356Z,64.74
2023-05-19T04:37:37.576Z,62.79
2023-05-19T04:40:23.953Z,61.76
2023-05-19T04:43:09.625Z,62.60
2023-05-19T04:45:53.610Z,63.09
2023-05-19T04:48:38.691Z,61.93
2023-05-19T04:51:22.335Z,62.61
2023-05-19T04:54:06.453Z,61.85
2023-05-19T04:56:50.213Z,62.00
2023-05-19T04:59:34.396Z,61.86
2023-05-19T05:02:21.261Z,60.20
2023-05-19T05:05:05.615Z,62.33
2023-05-19T05:07:49.729Z,62.14
2023-05-19T05:10:34.054Z,65.19
2023-05-19T05:13:21.987Z,64.14
2023-05-19T05:16:06.700Z,66.27
2023-05-19T05:18:50.840Z,65.82
2023-05-19T05:21:34.908Z,65.71
2023-05-19T05:24:18.778Z,64.62
2023-05-19T05:27:08.423Z,62.98
2023-05-19T05:29:53.086Z,63.34
2023-05-19T05:32:37.679Z,63.71
2023-05-19T05:35:27.786Z,65.05
2023-05-19T05:38:11.679Z,64.85
2023-05-19T05:40:56.004Z,68.33
2023-05-19T05:43:39.643Z,66.34
2023-05-19T05:46:23.350Z,64.18
2023-05-19T05:49:07.702Z,64.63
2023-05-19T05:52:05.056Z,63.82
2023-05-19T05:54:52.476Z,63.33
2023-05-19T05:57:37.176Z,62.75
2023-05-19T06:00:22.537Z,64.55
2023-05-19T06:05:54.919Z,64.04
2023-05-19T06:08:38.665Z,63.58
2023-05-19T06:11:22.559Z,65.14
2023-05-19T06:14:06.292Z,62.28
2023-05-19T06:17:18.872Z,62.76
2023-05-19T06:20:03.687Z,62.27
2023-05-19T06:22:47.302Z,63.34
2023-05-19T06:25:33.522Z,61.74
2023-05-19T06:28:18.116Z,61.14
2023-05-19T06:31:01.824Z,61.54
2023-05-19T06:34:05.837Z,61.13
2023-05-19T06:36:49.528Z,60.82
2023-05-19T06:39:35.265Z,62.80
2023-05-19T06:42:24.303Z,61.21
2023-05-19T06:45:28.151Z,60.15
2023-05-19T06:48:15.167Z,60.68
2023-05-19T06:50:58.813Z,59.75
2023-05-19T06:53:43.122Z,59.65
2023-05-19T06:56:26.812Z,60.52
2023-05-19T06:59:10.474Z,59.49
2023-05-19T07:01:55.220Z,58.99
2023-05-19T07:04:39.998Z,59.98
2023-05-19T07:07:24.266Z,60.63
2023-05-19T07:10:09.075Z,58.97
2023-05-19T07:12:52.763Z,58.97
2023-05-19T07:15:39.002Z,57.59
2023-05-19T07:18:23.418Z,58.51
2023-05-19T07:21:08.833Z,57.82
2023-05-19T07:23:53.724Z,56.51
2023-05-19T07:26:37.337Z,55.91
2023-05-19T07:29:21.028Z,56.81
2023-05-19T07:32:05.138Z,56.19
2023-05-19T07:34:48.692Z,56.75
2023-05-19T07:37:32.304Z,56.67
2023-05-19T07:40:16.062Z,55.23
2023-05-19T07:42:59.603Z,54.85
2023-05-19T07:45:43.222Z,55.27
2023-05-19T07:48:26.830Z,55.20
2023-05-19T07:51:11.568Z,56.18
2023-05-19T07:53:55.241Z,56.44
2023-05-19T07:56:38.878Z,55.19
2023-05-19T07:59:22.570Z,55.06
2023-05-19T08:02:06.584Z,53.20
2023-05-19T08:04:50.575Z,53.13
2023-05-19T08:07:34.280Z,52.27
2023-05-19T08:10:18.160Z,52.39
2023-05-19T08:13:02.140Z,52.17
2023-05-19T08:15:46.340Z,51.35
2023-05-19T08:18:30.241Z,50.23
2023-05-19T08:21:13.895Z,49.21
2023-05-19T08:23:57.756Z,49.42
2023-05-19T08:26:41.805Z,49.77
2023-05-19T08:29:25.407Z,47.89
2023-05-19T08:32:11.494Z,46.60
2023-05-19T08:34:56.984Z,48.84
2023-05-19T08:37:41.142Z,47.91
2023-05-19T08:40:27.491Z,46.33
2023-05-19T08:43:11.967Z,46.88
2023-05-19T08:45:56.041Z,48.93
2023-05-19T08:48:44.359Z,46.29
2023-05-19T08:51:47.340Z,46.11
2023-05-19T08:54:41.569Z,46.04
2023-05-19T08:57:25.981Z,45.66
2023-05-19T09:00:12.341Z,46.51
2023-05-19T09:03:10.735Z,46.56
2023-05-19T09:06:02.105Z,45.45
2023-05-19T09:08:47.263Z,45.91
2023-05-19T09:11:31.050Z,45.20
2023-05-19T09:14:14.733Z,44.22
2023-05-19T09:16:58.604Z,43.17
2023-05-19T09:19:48.319Z,41.61
2023-05-19T09:22:33.659Z,41.54
2023-05-19T09:25:23.832Z,41.04
2023-05-19T09:28:09.211Z,41.30
2023-05-19T09:31:10.155Z,41.31
2023-05-19T09:33:54.009Z,40.84
2023-05-19T09:36:41.611Z,42.78
2023-05-19T09:39:26.081Z,40.85
2023-05-19T09:42:09.719Z,40.88
2023-05-19T09:45:05.113Z,42.03
2023-05-19T09:47:49.219Z,40.94
2023-05-19T09:50:34.030Z,41.56
2023-05-19T09:53:18.708Z,41.66
2023-05-19T09:56:03.802Z,39.99
2023-05-19T09:58:49.310Z,39.95
2023-05-19T10:01:33.926Z,36.91
2023-05-19T10:04:18.507Z,38.08
2023-05-19T10:07:06.274Z,37.02
2023-05-19T10:09:51.849Z,38.95
2023-05-19T10:12:37.620Z,38.79
2023-05-19T10:15:23.336Z,38.29
2023-05-19T10:18:09.353Z,36.29
2023-05-19T10:20:54.354Z,37.15
2023-05-19T10:23:38.603Z,36.99
2023-05-19T10:26:26.285Z,36.11
2023-05-19T10:29:12.770Z,36.72
2023-05-19T10:32:06.882Z,37.17
2023-05-19T10:35:12.043Z,36.53
2023-05-19T10:38:27.756Z,36.40
2023-05-19T10:42:00.466Z,36.84
2023-05-19T10:45:20.164Z,35.82
2023-05-19T10:48:04.186Z,36.85
2023-05-19T10:50:48.989Z,37.01
2023-05-19T10:53:34.610Z,37.06
2023-05-19T10:56:36.318Z,36.61
2023-05-19T10:59:37.967Z,36.95
2023-05-19T11:02:42.730Z,36.94
2023-05-19T11:05:32.524Z,35.80
2023-05-19T11:08:18.055Z,35.02
2023-05-19T11:11:17.863Z,34.31
2023-05-19T11:14:01.907Z,35.04
2023-05-19T11:16:51.115Z,36.09
2023-05-19T11:19:36.364Z,36.55
2023-05-19T11:22:27.058Z,36.09
2023-05-19T11:25:10.894Z,36.92
2023-05-19T11:27:55.586Z,36.93
2023-05-19T11:30:42.611Z,36.63
2023-05-19T11:33:30.176Z,36.95
2023-05-19T11:36:16.795Z,36.52
2023-05-19T11:39:02.636Z,36.86
2023-05-19T11:41:46.295Z,36.32
2023-05-19T11:44:29.852Z,37.34
2023-05-19T11:47:15.046Z,38.12
2023-05-19T11:49:59.073Z,36.97
2023-05-19T11:52:47.739Z,37.34
2023-05-19T11:55:31.398Z,35.18
2023-05-19T11:58:15.980Z,37.00
2023-05-19T12:01:05.025Z,38.13
2023-05-19T12:03:49.894Z,38.58
2023-05-19T12:06:34.581Z,38.15
2023-05-19T12:09:22.400Z,37.81
2023-05-19T12:12:06.367Z,37.66
2023-05-19T12:14:53.509Z,37.36
2023-05-19T12:17:37.504Z,36.95
2023-05-19T12:20:21.272Z,37.76
2023-05-19T12:23:05.343Z,36.80
2023-05-19T12:25:49.960Z,34.89
2023-05-19T12:28:33.614Z,35.85
2023-05-19T12:31:18.231Z,36.05
2023-05-19T12:34:02.336Z,36.48
2023-05-19T12:36:46.860Z,36.62
2023-05-19T12:39:30.791Z,37.89
2023-05-19T12:42:16.732Z,37.24
2023-05-19T12:45:04.770Z,36.30
2023-05-19T12:47:50.625Z,38.17
2023-05-19T12:50:34.996Z,39.48
2023-05-19T12:53:18.982Z,35.54
2023-05-19T12:56:10.147Z,35.53
2023-05-19T12:58:55.550Z,34.04
2023-05-19T13:01:39.227Z,35.21
2023-05-19T13:04:22.899Z,35.06
2023-05-19T13:07:06.524Z,36.43
2023-05-19T13:09:50.196Z,35.54
2023-05-19T13:12:33.860Z,35.68
2023-05-19T13:15:17.563Z,37.26
2023-05-19T13:18:06.419Z,36.05
2023-05-19T13:20:51.598Z,36.39
2023-05-19T13:23:35.542Z,36.00
2023-05-19T13:26:19.496Z,36.53
2023-05-19T13:29:03.267Z,35.43
2023-05-19T13:31:47.027Z,34.91
2023-05-19T13:34:30.761Z,34.77
2023-05-19T13:37:14.662Z,35.58
2023-05-19T13:40:00.880Z,34.09
2023-05-19T13:42:45.364Z,35.56
2023-05-19T13:45:29.310Z,34.08
2023-05-19T13:48:13.390Z,35.87
2023-05-19T13:50:56.992Z,36.01
2023-05-19T13:53:41.408Z,34.94
2023-05-19T13:56:24.991Z,36.46
2023-05-19T13:59:08.750Z,35.99
2023-05-19T14:01:52.491Z,36.88
2023-05-19T14:04:40.431Z,34.72
2023-05-19T14:07:24.352Z,35.07
2023-05-19T14:10:08.708Z,35.59
2023-05-19T14:15:42.228Z,36.55
2023-05-19T14:18:26.743Z,36.10
2023-05-19T14:21:10.463Z,35.82
2023-05-19T14:23:54.059Z,36.15
2023-05-19T14:26:37.668Z,36.77
2023-05-19T14:29:21.308Z,35.50
2023-05-19T14:32:06.106Z,35.86
2023-05-19T14:34:53.095Z,35.78
2023-05-19T14:37:36.843Z,34.85
2023-05-19T14:40:20.454Z,35.86
2023-05-19T14:43:04.287Z,34.25
2023-05-19T14:45:47.925Z,35.33
2023-05-19T14:48:32.176Z,35.30
2023-05-19T14:51:15.790Z,35.49
2023-05-19T14:54:00.396Z,34.22
2023-05-19T14:56:44.036Z,36.09
2023-05-19T14:59:28.133Z,36.28
2023-05-19T15:02:14.340Z,35.86
2023-05-19T15:04:57.990Z,36.74
2023-05-19T15:07:41.678Z,35.79
2023-05-19T15:10:25.402Z,35.26
2023-05-19T15:13:09.064Z,35.04
2023-05-19T15:16:30.397Z,34.92
2023-05-19T15:19:14.080Z,34.33
2023-05-19T15:21:57.810Z,35.03
2023-05-19T15:24:41.541Z,35.54
2023-05-19T15:27:25.205Z,35.85
2023-05-19T15:30:09.152Z,36.86
2023-05-19T15:32:52.910Z,36.76
2023-05-19T15:35:36.557Z,36.65
2023-05-19T15:38:20.617Z,37.12
2023-05-19T15:41:08.886Z,36.82
2023-05-19T15:43:53.752Z,36.94
2023-05-19T15:46:37.366Z,37.15
2023-05-19T15:49:20.998Z,37.58
2023-05-19T15:52:04.927Z,38.51
2023-05-19T15:54:48.966Z,37.68
2023-05-19T15:57:32.580Z,37.26
2023-05-19T16:00:16.517Z,37.49
2023-05-19T16:03:00.244Z,38.39
2023-05-19T16:05:43.922Z,37.81
2023-05-19T16:08:27.828Z,38.64
2023-05-19T16:11:11.570Z,38.77
2023-05-19T16:13:55.209Z,39.85
2023-05-19T16:16:38.850Z,39.75
2023-05-19T16:19:24.032Z,39.28
2023-05-19T16:22:07.725Z,38.86
2023-05-19T16:24:52.405Z,38.26
2023-05-19T16:27:35.953Z,38.27
2023-05-19T16:30:19.491Z,38.58
2023-05-19T16:33:03.196Z,38.69
2023-05-19T16:35:46.848Z,38.35
2023-05-19T16:38:30.671Z,37.55
2023-05-19T16:41:14.334Z,38.87
2023-05-19T16:43:57.912Z,39.12
2023-05-19T16:46:41.492Z,38.66
2023-05-19T16:49:25.078Z,39.18
2023-05-19T16:52:08.675Z,40.88
2023-05-19T16:54:52.670Z,39.97
2023-05-19T16:57:36.344Z,39.82
2023-05-19T17:00:20.101Z,39.27
2023-05-19T17:03:04.942Z,39.35
2023-05-19T17:05:48.702Z,38.98
2023-05-19T17:08:32.437Z,38.96
2023-05-19T17:11:16.052Z,39.30
2023-05-19T17:13:59.631Z,40.04
2023-05-19T17:16:43.308Z,39.56
2023-05-19T17:19:27.202Z,39.61
2023-05-19T17:22:10.931Z,40.04
2023-05-19T17:24:54.490Z,40.25
2023-05-19T17:27:38.181Z,40.28
2023-05-19T17:30:21.777Z,40.55
2023-05-19T17:33:05.831Z,40.62
2023-05-19T17:35:49.452Z,40.65
2023-05-19T17:38:33.096Z,41.68
2023-05-19T17:41:16.921Z,40.91
2023-05-19T17:44:00.845Z,40.81
2023-05-19T17:46:44.542Z,41.88
2023-05-19T17:49:28.195Z,41.50
2023-05-19T17:52:12.129Z,41.82
2023-05-19T17:54:56.233Z,41.92
2023-05-19T17:57:43.750Z,42.17
2023-05-19T18:00:27.660Z,42.12
2023-05-19T18:03:12.000Z,42.19
2023-05-19T18:05:56.076Z,42.52
2023-05-19T18:08:42.669Z,42.36
2023-05-19T18:11:26.671Z,42.78
2023-05-19T18:14:10.761Z,42.80
2023-05-19T18:16:54.399Z,42.02
2023-05-19T18:19:38.175Z,43.87
2023-05-19T18:22:22.208Z,43.26
2023-05-19T18:25:06.838Z,43.93
2023-05-19T18:27:50.493Z,44.00
2023-05-19T18:30:34.437Z,43.81
2023-05-19T18:33:18.445Z,43.78
2023-05-19T18:36:02.319Z,43.16
2023-05-19T18:38:47.555Z,44.97
2023-05-19T18:41:32.115Z,44.52
2023-05-19T18:44:15.695Z,45.25
2023-05-19T18:46:59.818Z,45.97
2023-05-19T18:49:43.408Z,45.25
2023-05-19T18:52:28.846Z,44.73
2023-05-19T18:55:12.451Z,44.52
2023-05-19T18:57:56.158Z,45.39
2023-05-19T19:00:39.745Z,45.80
2023-05-19T19:03:23.550Z,46.19
2023-05-19T19:06:07.243Z,46.03
2023-05-19T19:08:51.359Z,46.58
2023-05-19T19:11:34.962Z,46.29
2023-05-19T19:14:19.522Z,45.53
2023-05-19T19:17:03.128Z,48.22
2023-05-19T19:19:49.531Z,48.07
2023-05-19T19:22:33.233Z,46.96
2023-05-19T19:25:17.214Z,47.16
2023-05-19T19:28:01.826Z,46.28
2023-05-19T19:30:46.359Z,46.54
2023-05-19T19:33:29.933Z,46.50
2023-05-19T19:36:13.672Z,46.65
2023-05-19T19:38:57.341Z,47.28
2023-05-19T19:41:41.200Z,47.45
2023-05-19T19:44:25.248Z,46.36
2023-05-19T19:47:08.796Z,47.54
2023-05-19T19:49:52.436Z,47.34
2023-05-19T19:52:36.141Z,48.61
2023-05-19T19:55:19.769Z,48.37
2023-05-19T19:58:03.408Z,48.42
2023-05-19T20:00:47.017Z,48.69
2023-05-19T20:03:31.848Z,48.78
2023-05-19T20:06:15.553Z,48.79
2023-05-19T20:08:59.878Z,49.43
2023-05-19T20:11:43.761Z,48.58
2023-05-19T20:14:27.429Z,47.92
2023-05-19T20:17:11.020Z,49.67
2023-05-19T20:19:54.705Z,49.29
2023-05-19T20:22:39.351Z,49.98
2023-05-19T20:25:22.923Z,49.53
2023-05-19T20:28:06.759Z,50.15
2023-05-19T20:30:50.526Z,50.20
2023-05-19T20:33:34.459Z,50.34
2023-05-19T20:36:18.046Z,50.67
2023-05-19T20:39:01.617Z,50.65
2023-05-19T20:41:45.224Z,50.75
2023-05-19T20:44:28.879Z,50.58
2023-05-19T20:47:12.582Z,50.86
2023-05-19T20:49:56.114Z,49.68
2023-05-19T20:52:39.862Z,50.60
2023-05-19T20:55:23.437Z,49.78
2023-05-19T20:58:07.166Z,49.69
2023-05-19T21:00:57.065Z,50.05
2023-05-19T21:03:40.983Z,50.22
2023-05-19T21:06:24.589Z,49.89
2023-05-19T21:09:08.187Z,49.99
2023-05-19T21:11:54.936Z,50.06
2023-05-19T21:14:38.548Z,49.61
2023-05-19T21:17:22.294Z,49.92
2023-05-19T21:20:06.714Z,52.05
2023-05-19T21:22:50.270Z,50.93
2023-05-19T21:25:33.850Z,51.85
2023-05-19T21:28:17.437Z,51.80
2023-05-19T21:31:01.076Z,51.54
2023-05-19T21:33:44.814Z,52.11
2023-05-19T21:36:28.480Z,52.48
2023-05-19T21:39:12.054Z,52.47
2023-05-19T21:41:55.649Z,52.30
2023-05-19T21:44:39.198Z,52.13
2023-05-19T21:47:25.693Z,53.83
2023-05-19T21:50:11.119Z,51.40
2023-05-19T21:52:54.709Z,53.00
2023-05-19T21:55:39.383Z,53.25
2023-05-19T21:58:24.211Z,54.53
2023-05-19T22:01:08.306Z,53.24
2023-05-19T22:03:53.184Z,53.15
2023-05-19T22:06:36.817Z,53.73
2023-05-19T22:09:20.398Z,53.25
2023-05-19T22:12:04.141Z,54.44
2023-05-19T22:14:47.742Z,53.78
2023-05-19T22:17:31.874Z,54.40
2023-05-19T22:20:15.750Z,55.21
2023-05-19T22:23:01.280Z,56.63
2023-05-19T22:25:44.907Z,57.30
2023-05-19T22:28:30.643Z,57.20
2023-05-19T22:31:14.427Z,56.70
2023-05-19T22:33:58.210Z,55.93
2023-05-19T22:36:44.358Z,55.75
2023-05-19T22:39:27.976Z,55.95
2023-05-19T22:42:12.159Z,56.19
2023-05-19T22:44:55.915Z,55.62
2023-05-19T22:47:39.662Z,57.04
2023-05-19T22:50:23.441Z,56.12
2023-05-19T22:53:07.174Z,58.69
2023-05-19T22:55:51.153Z,57.04
2023-05-19T22:58:34.968Z,56.94
2023-05-19T23:01:18.933Z,56.30
2023-05-19T23:04:02.544Z,56.71
2023-05-19T23:06:47.314Z,56.75
2023-05-19T23:09:30.929Z,57.13
2023-05-19T23:12:14.609Z,57.41
2023-05-19T23:15:00.940Z,58.28
2023-05-19T23:17:44.643Z,58.05
2023-05-19T23:20:28.301Z,63.02
2023-05-19T23:23:11.877Z,60.04
2023-05-19T23:25:55.992Z,59.18
2023-05-19T23:28:42.010Z,57.76
2023-05-19T23:31:25.792Z,59.57
2023-05-19T23:34:09.482Z,59.81
2023-05-19T23:36:53.172Z,60.58
2023-05-19T23:39:38.449Z,60.11
2023-05-19T23:42:22.005Z,62.78
2023-05-19T23:45:06.349Z,60.76
2023-05-19T23:47:49.959Z,61.98
2023-05-19T23:50:33.709Z,59.73
2023-05-19T23:53:17.437Z,60.95
2023-05-19T23:56:00.966Z,60.07
2023-05-19T23:58:44.535Z,62.78
